sensor_id;sensor_type;location;lat;lon;timestamp;P1;durP1;ratioP1;P2;durP2;ratioP2
19131;SDS011;9698;51.976;7.570;2023-06-10T00:00:04;11.27;;;5.93;;
19131;SDS011;9698;51.976;7.570;2023-06-10T00:02:33;7.77;;;5.30;;
19131;SDS011;9698;51.976;7.570;2023-06-10T00:05:02;6.57;;;5.57;;
19131;SDS011;9698;51.976;7.570;2023-06-10T00:07:31;8.40;;;6.40;;
19131;SDS011;9698;51.976;7.570;2023-06-10T00:09:59;8.37;;;6.20;;
19131;SDS011;9698;51.976;7.570;2023-06-10T00:12:30;8.40;;;6.53;;
19131;SDS011;9698;51.976;7.570;2023-06-10T00:15:05;6.80;;;6.00;;
19131;SDS011;9698;51.976;7.570;2023-06-10T00:17:35;7.17;;;5.67;;
19131;SDS011;9698;51.976;7.570;2023-06-10T00:20:07;6.93;;;5.77;;
19131;SDS011;9698;51.976;7.570;2023-06-10T00:22:38;9.50;;;6.00;;
19131;SDS011;9698;51.976;7.570;2023-06-10T00:25:08;12.07;;;5.80;;
19131;SDS011;9698;51.976;7.570;2023-06-10T00:27:37;7.90;;;6.13;;
19131;SDS011;9698;51.976;7.570;2023-06-10T00:30:07;7.33;;;6.20;;
19131;SDS011;9698;51.976;7.570;2023-06-10T00:32:36;7.37;;;5.83;;
19131;SDS011;9698;51.976;7.570;2023-06-10T00:35:05;7.00;;;5.87;;
19131;SDS011;9698;51.976;7.570;2023-06-10T00:37:34;10.13;;;6.23;;
19131;SDS011;9698;51.976;7.570;2023-06-10T00:40:02;6.27;;;5.30;;
19131;SDS011;9698;51.976;7.570;2023-06-10T00:42:32;9.47;;;6.10;;
19131;SDS011;9698;51.976;7.570;2023-06-10T00:45:00;9.13;;;6.13;;
19131;SDS011;9698;51.976;7.570;2023-06-10T00:47:28;7.70;;;6.30;;
19131;SDS011;9698;51.976;7.570;2023-06-10T00:49:57;7.23;;;5.90;;
19131;SDS011;9698;51.976;7.570;2023-06-10T00:52:27;11.40;;;6.37;;
19131;SDS011;9698;51.976;7.570;2023-06-10T00:54:56;9.53;;;6.17;;
19131;SDS011;9698;51.976;7.570;2023-06-10T00:57:25;7.03;;;6.07;;
19131;SDS011;9698;51.976;7.570;2023-06-10T00:59:53;7.67;;;5.97;;
19131;SDS011;9698;51.976;7.570;2023-06-10T01:02:21;9.70;;;6.30;;
19131;SDS011;9698;51.976;7.570;2023-06-10T01:04:49;8.70;;;6.30;;
19131;SDS011;9698;51.976;7.570;2023-06-10T01:07:21;9.90;;;6.00;;
19131;SDS011;9698;51.976;7.570;2023-06-10T01:09:55;7.43;;;5.93;;
19131;SDS011;9698;51.976;7.570;2023-06-10T01:12:30;8.63;;;5.90;;
19131;SDS011;9698;51.976;7.570;2023-06-10T01:15:01;9.23;;;6.20;;
19131;SDS011;9698;51.976;7.570;2023-06-10T01:17:30;9.13;;;6.47;;
19131;SDS011;9698;51.976;7.570;2023-06-10T01:19:58;7.73;;;6.30;;
19131;SDS011;9698;51.976;7.570;2023-06-10T01:22:26;6.87;;;5.80;;
19131;SDS011;9698;51.976;7.570;2023-06-10T01:24:55;8.70;;;6.30;;
19131;SDS011;9698;51.976;7.570;2023-06-10T01:27:25;6.80;;;5.90;;
19131;SDS011;9698;51.976;7.570;2023-06-10T01:29:58;10.57;;;6.87;;
19131;SDS011;9698;51.976;7.570;2023-06-10T01:32:32;7.17;;;6.27;;
19131;SDS011;9698;51.976;7.570;2023-06-10T01:35:05;7.20;;;5.93;;
19131;SDS011;9698;51.976;7.570;2023-06-10T01:37:35;9.27;;;5.93;;
19131;SDS011;9698;51.976;7.570;2023-06-10T01:40:06;9.47;;;6.30;;
19131;SDS011;9698;51.976;7.570;2023-06-10T01:42:35;6.93;;;6.23;;
19131;SDS011;9698;51.976;7.570;2023-06-10T01:45:05;7.93;;;6.30;;
19131;SDS011;9698;51.976;7.570;2023-06-10T01:47:35;10.30;;;6.43;;
19131;SDS011;9698;51.976;7.570;2023-06-10T01:50:04;9.70;;;6.17;;
19131;SDS011;9698;51.976;7.570;2023-06-10T01:52:33;10.53;;;6.40;;
19131;SDS011;9698;51.976;7.570;2023-06-10T01:55:01;7.57;;;6.13;;
19131;SDS011;9698;51.976;7.570;2023-06-10T01:57:30;8.03;;;5.70;;
19131;SDS011;9698;51.976;7.570;2023-06-10T01:59:58;8.37;;;6.43;;
19131;SDS011;9698;51.976;7.570;2023-06-10T02:02:26;6.50;;;5.90;;
19131;SDS011;9698;51.976;7.570;2023-06-10T02:04:54;6.80;;;5.93;;
19131;SDS011;9698;51.976;7.570;2023-06-10T02:07:22;7.83;;;6.10;;
19131;SDS011;9698;51.976;7.570;2023-06-10T02:09:50;10.53;;;6.13;;
19131;SDS011;9698;51.976;7.570;2023-06-10T02:12:17;6.90;;;6.20;;
19131;SDS011;9698;51.976;7.570;2023-06-10T02:14:45;8.73;;;6.10;;
19131;SDS011;9698;51.976;7.570;2023-06-10T02:17:13;8.40;;;6.33;;
19131;SDS011;9698;51.976;7.570;2023-06-10T02:19:41;9.20;;;6.47;;
19131;SDS011;9698;51.976;7.570;2023-06-10T02:22:09;9.97;;;6.60;;
19131;SDS011;9698;51.976;7.570;2023-06-10T02:24:37;7.77;;;5.40;;
19131;SDS011;9698;51.976;7.570;2023-06-10T02:27:06;8.03;;;6.20;;
19131;SDS011;9698;51.976;7.570;2023-06-10T02:29:33;8.77;;;6.03;;
19131;SDS011;9698;51.976;7.570;2023-06-10T02:32:02;11.07;;;5.97;;
19131;SDS011;9698;51.976;7.570;2023-06-10T02:34:31;9.33;;;5.70;;
19131;SDS011;9698;51.976;7.570;2023-06-10T02:36:59;9.77;;;5.97;;
19131;SDS011;9698;51.976;7.570;2023-06-10T02:39:28;11.67;;;6.10;;
19131;SDS011;9698;51.976;7.570;2023-06-10T02:41:56;8.20;;;5.73;;
19131;SDS011;9698;51.976;7.570;2023-06-10T02:44:24;9.87;;;5.87;;
19131;SDS011;9698;51.976;7.570;2023-06-10T02:46:52;6.77;;;5.90;;
19131;SDS011;9698;51.976;7.570;2023-06-10T02:49:20;10.33;;;6.27;;
19131;SDS011;9698;51.976;7.570;2023-06-10T02:51:47;9.03;;;6.00;;
19131;SDS011;9698;51.976;7.570;2023-06-10T02:54:19;9.70;;;6.40;;
19131;SDS011;9698;51.976;7.570;2023-06-10T02:56:47;8.33;;;6.47;;
19131;SDS011;9698;51.976;7.570;2023-06-10T02:59:15;11.17;;;6.37;;
19131;SDS011;9698;51.976;7.570;2023-06-10T03:01:43;9.70;;;5.77;;
19131;SDS011;9698;51.976;7.570;2023-06-10T03:04:10;7.00;;;5.97;;
19131;SDS011;9698;51.976;7.570;2023-06-10T03:06:40;9.37;;;5.53;;
19131;SDS011;9698;51.976;7.570;2023-06-10T03:09:08;9.33;;;5.83;;
19131;SDS011;9698;51.976;7.570;2023-06-10T03:11:36;11.53;;;6.40;;
19131;SDS011;9698;51.976;7.570;2023-06-10T03:14:04;11.97;;;5.97;;
19131;SDS011;9698;51.976;7.570;2023-06-10T03:16:31;7.63;;;6.20;;
19131;SDS011;9698;51.976;7.570;2023-06-10T03:18:59;9.77;;;6.00;;
19131;SDS011;9698;51.976;7.570;2023-06-10T03:21:27;7.23;;;5.73;;
19131;SDS011;9698;51.976;7.570;2023-06-10T03:23:56;7.63;;;6.27;;
19131;SDS011;9698;51.976;7.570;2023-06-10T03:26:25;14.57;;;6.30;;
19131;SDS011;9698;51.976;7.570;2023-06-10T03:28:53;9.07;;;6.17;;
19131;SDS011;9698;51.976;7.570;2023-06-10T03:31:21;7.37;;;6.20;;
19131;SDS011;9698;51.976;7.570;2023-06-10T03:33:51;9.33;;;6.33;;
19131;SDS011;9698;51.976;7.570;2023-06-10T03:36:18;9.33;;;5.93;;
19131;SDS011;9698;51.976;7.570;2023-06-10T03:38:46;6.83;;;5.73;;
19131;SDS011;9698;51.976;7.570;2023-06-10T03:41:17;6.87;;;5.63;;
19131;SDS011;9698;51.976;7.570;2023-06-10T03:43:45;6.83;;;5.60;;
19131;SDS011;9698;51.976;7.570;2023-06-10T03:46:13;6.73;;;5.97;;
19131;SDS011;9698;51.976;7.570;2023-06-10T03:48:41;7.63;;;6.17;;
19131;SDS011;9698;51.976;7.570;2023-06-10T03:51:09;11.40;;;6.00;;
19131;SDS011;9698;51.976;7.570;2023-06-10T03:53:37;8.47;;;6.07;;
19131;SDS011;9698;51.976;7.570;2023-06-10T03:56:05;8.37;;;5.73;;
19131;SDS011;9698;51.976;7.570;2023-06-10T03:58:33;7.97;;;5.83;;
19131;SDS011;9698;51.976;7.570;2023-06-10T04:01:01;6.77;;;5.47;;
19131;SDS011;9698;51.976;7.570;2023-06-10T04:03:29;6.70;;;5.40;;
19131;SDS011;9698;51.976;7.570;2023-06-10T04:05:58;7.17;;;5.43;;
19131;SDS011;9698;51.976;7.570;2023-06-10T04:08:26;9.53;;;5.70;;
19131;SDS011;9698;51.976;7.570;2023-06-10T04:10:54;7.40;;;5.47;;
19131;SDS011;9698;51.976;7.570;2023-06-10T04:13:22;9.43;;;5.50;;
19131;SDS011;9698;51.976;7.570;2023-06-10T04:15:50;7.30;;;5.20;;
19131;SDS011;9698;51.976;7.570;2023-06-10T04:18:18;8.07;;;5.87;;
19131;SDS011;9698;51.976;7.570;2023-06-10T04:20:46;7.87;;;5.40;;
19131;SDS011;9698;51.976;7.570;2023-06-10T04:23:14;8.47;;;5.70;;
19131;SDS011;9698;51.976;7.570;2023-06-10T04:25:42;7.13;;;5.10;;
19131;SDS011;9698;51.976;7.570;2023-06-10T04:28:10;10.27;;;5.50;;
19131;SDS011;9698;51.976;7.570;2023-06-10T04:30:38;6.67;;;5.20;;
19131;SDS011;9698;51.976;7.570;2023-06-10T04:33:06;7.63;;;5.60;;
19131;SDS011;9698;51.976;7.570;2023-06-10T04:35:35;5.97;;;5.37;;
19131;SDS011;9698;51.976;7.570;2023-06-10T04:38:03;8.77;;;5.63;;
19131;SDS011;9698;51.976;7.570;2023-06-10T04:40:31;6.57;;;5.70;;
19131;SDS011;9698;51.976;7.570;2023-06-10T04:42:59;6.90;;;5.37;;
19131;SDS011;9698;51.976;7.570;2023-06-10T04:45:27;7.23;;;5.40;;
19131;SDS011;9698;51.976;7.570;2023-06-10T04:47:56;7.47;;;5.27;;
19131;SDS011;9698;51.976;7.570;2023-06-10T04:50:24;7.27;;;4.60;;
19131;SDS011;9698;51.976;7.570;2023-06-10T04:52:52;5.60;;;5.07;;
19131;SDS011;9698;51.976;7.570;2023-06-10T04:55:23;7.37;;;5.33;;
19131;SDS011;9698;51.976;7.570;2023-06-10T04:57:51;8.80;;;5.70;;
19131;SDS011;9698;51.976;7.570;2023-06-10T05:00:19;7.93;;;5.30;;
19131;SDS011;9698;51.976;7.570;2023-06-10T05:02:47;8.70;;;5.70;;
19131;SDS011;9698;51.976;7.570;2023-06-10T05:05:16;7.40;;;5.30;;
19131;SDS011;9698;51.976;7.570;2023-06-10T05:07:44;10.63;;;4.90;;
19131;SDS011;9698;51.976;7.570;2023-06-10T05:10:11;6.50;;;5.73;;
19131;SDS011;9698;51.976;7.570;2023-06-10T05:12:39;9.67;;;6.03;;
19131;SDS011;9698;51.976;7.570;2023-06-10T05:15:09;7.40;;;6.33;;
19131;SDS011;9698;51.976;7.570;2023-06-10T05:17:38;8.07;;;5.33;;
19131;SDS011;9698;51.976;7.570;2023-06-10T05:20:07;6.00;;;5.23;;
19131;SDS011;9698;51.976;7.570;2023-06-10T05:22:36;6.20;;;4.80;;
19131;SDS011;9698;51.976;7.570;2023-06-10T05:25:05;7.93;;;4.93;;
19131;SDS011;9698;51.976;7.570;2023-06-10T05:27:34;8.20;;;4.87;;
19131;SDS011;9698;51.976;7.570;2023-06-10T05:30:03;7.37;;;5.43;;
19131;SDS011;9698;51.976;7.570;2023-06-10T05:32:33;8.03;;;5.40;;
19131;SDS011;9698;51.976;7.570;2023-06-10T05:35:02;7.77;;;5.00;;
19131;SDS011;9698;51.976;7.570;2023-06-10T05:37:33;7.70;;;5.00;;
19131;SDS011;9698;51.976;7.570;2023-06-10T05:40:04;6.33;;;4.70;;
19131;SDS011;9698;51.976;7.570;2023-06-10T05:42:33;9.80;;;4.70;;
19131;SDS011;9698;51.976;7.570;2023-06-10T05:45:01;6.57;;;5.03;;
19131;SDS011;9698;51.976;7.570;2023-06-10T05:47:30;7.77;;;5.40;;
19131;SDS011;9698;51.976;7.570;2023-06-10T05:49:58;9.57;;;5.27;;
19131;SDS011;9698;51.976;7.570;2023-06-10T05:52:26;5.43;;;4.40;;
19131;SDS011;9698;51.976;7.570;2023-06-10T05:54:54;6.33;;;5.10;;
19131;SDS011;9698;51.976;7.570;2023-06-10T05:57:22;7.40;;;4.73;;
19131;SDS011;9698;51.976;7.570;2023-06-10T05:59:50;7.43;;;4.60;;
19131;SDS011;9698;51.976;7.570;2023-06-10T06:02:18;5.33;;;4.50;;
19131;SDS011;9698;51.976;7.570;2023-06-10T06:04:46;7.23;;;4.67;;
19131;SDS011;9698;51.976;7.570;2023-06-10T06:07:14;5.10;;;4.60;;
19131;SDS011;9698;51.976;7.570;2023-06-10T06:09:42;8.33;;;4.83;;
19131;SDS011;9698;51.976;7.570;2023-06-10T06:12:10;8.67;;;4.87;;
19131;SDS011;9698;51.976;7.570;2023-06-10T06:14:38;7.47;;;4.77;;
19131;SDS011;9698;51.976;7.570;2023-06-10T06:17:06;6.47;;;4.10;;
19131;SDS011;9698;51.976;7.570;2023-06-10T06:19:34;5.40;;;3.87;;
19131;SDS011;9698;51.976;7.570;2023-06-10T06:22:01;4.27;;;3.87;;
19131;SDS011;9698;51.976;7.570;2023-06-10T06:24:30;4.67;;;3.90;;
19131;SDS011;9698;51.976;7.570;2023-06-10T06:26:58;7.17;;;4.03;;
19131;SDS011;9698;51.976;7.570;2023-06-10T06:29:26;6.67;;;4.20;;
19131;SDS011;9698;51.976;7.570;2023-06-10T06:31:56;7.47;;;4.73;;
19131;SDS011;9698;51.976;7.570;2023-06-10T06:34:24;5.47;;;4.27;;
19131;SDS011;9698;51.976;7.570;2023-06-10T06:36:52;7.70;;;4.20;;
19131;SDS011;9698;51.976;7.570;2023-06-10T06:39:20;5.87;;;4.43;;
19131;SDS011;9698;51.976;7.570;2023-06-10T06:41:48;5.47;;;4.40;;
19131;SDS011;9698;51.976;7.570;2023-06-10T06:44:16;7.03;;;4.47;;
19131;SDS011;9698;51.976;7.570;2023-06-10T06:46:44;5.37;;;4.53;;
19131;SDS011;9698;51.976;7.570;2023-06-10T06:49:12;6.70;;;4.37;;
19131;SDS011;9698;51.976;7.570;2023-06-10T06:51:39;8.03;;;4.67;;
19131;SDS011;9698;51.976;7.570;2023-06-10T06:54:07;9.37;;;4.40;;
19131;SDS011;9698;51.976;7.570;2023-06-10T06:56:35;5.40;;;3.97;;
19131;SDS011;9698;51.976;7.570;2023-06-10T06:59:04;4.40;;;3.77;;
19131;SDS011;9698;51.976;7.570;2023-06-10T07:01:33;6.13;;;3.80;;
19131;SDS011;9698;51.976;7.570;2023-06-10T07:04:01;5.87;;;4.20;;
19131;SDS011;9698;51.976;7.570;2023-06-10T07:06:29;5.73;;;3.93;;
19131;SDS011;9698;51.976;7.570;2023-06-10T07:08:57;5.63;;;4.47;;
19131;SDS011;9698;51.976;7.570;2023-06-10T07:11:24;7.90;;;4.13;;
19131;SDS011;9698;51.976;7.570;2023-06-10T07:13:52;5.33;;;4.60;;
19131;SDS011;9698;51.976;7.570;2023-06-10T07:16:20;5.93;;;4.60;;
19131;SDS011;9698;51.976;7.570;2023-06-10T07:18:48;5.53;;;4.33;;
19131;SDS011;9698;51.976;7.570;2023-06-10T07:21:16;5.30;;;3.83;;
19131;SDS011;9698;51.976;7.570;2023-06-10T07:23:43;7.07;;;4.27;;
19131;SDS011;9698;51.976;7.570;2023-06-10T07:26:11;7.27;;;4.63;;
19131;SDS011;9698;51.976;7.570;2023-06-10T07:28:39;7.03;;;4.17;;
19131;SDS011;9698;51.976;7.570;2023-06-10T07:31:07;5.30;;;3.90;;
19131;SDS011;9698;51.976;7.570;2023-06-10T07:33:36;5.53;;;3.77;;
19131;SDS011;9698;51.976;7.570;2023-06-10T07:36:05;5.40;;;3.90;;
19131;SDS011;9698;51.976;7.570;2023-06-10T07:38:34;6.57;;;3.90;;
19131;SDS011;9698;51.976;7.570;2023-06-10T07:41:02;6.73;;;4.17;;
19131;SDS011;9698;51.976;7.570;2023-06-10T07:43:29;5.57;;;4.07;;
19131;SDS011;9698;51.976;7.570;2023-06-10T07:45:57;7.23;;;4.33;;
19131;SDS011;9698;51.976;7.570;2023-06-10T07:48:26;4.87;;;4.20;;
19131;SDS011;9698;51.976;7.570;2023-06-10T07:50:54;7.20;;;4.00;;
19131;SDS011;9698;51.976;7.570;2023-06-10T07:53:21;6.60;;;4.13;;
19131;SDS011;9698;51.976;7.570;2023-06-10T07:55:49;5.77;;;4.37;;
19131;SDS011;9698;51.976;7.570;2023-06-10T07:58:17;5.13;;;4.13;;
19131;SDS011;9698;51.976;7.570;2023-06-10T08:00:46;5.50;;;4.37;;
19131;SDS011;9698;51.976;7.570;2023-06-10T08:03:14;5.47;;;4.03;;
19131;SDS011;9698;51.976;7.570;2023-06-10T08:05:42;5.53;;;4.10;;
19131;SDS011;9698;51.976;7.570;2023-06-10T08:08:10;5.40;;;3.77;;
19131;SDS011;9698;51.976;7.570;2023-06-10T08:10:40;4.40;;;3.67;;
19131;SDS011;9698;51.976;7.570;2023-06-10T08:13:08;5.53;;;4.43;;
19131;SDS011;9698;51.976;7.570;2023-06-10T08:15:36;6.60;;;3.80;;
19131;SDS011;9698;51.976;7.570;2023-06-10T08:18:04;8.23;;;4.13;;
19131;SDS011;9698;51.976;7.570;2023-06-10T08:20:32;4.87;;;4.00;;
19131;SDS011;9698;51.976;7.570;2023-06-10T08:23:00;6.30;;;4.60;;
19131;SDS011;9698;51.976;7.570;2023-06-10T08:25:28;7.47;;;4.40;;
19131;SDS011;9698;51.976;7.570;2023-06-10T08:27:56;6.70;;;4.30;;
19131;SDS011;9698;51.976;7.570;2023-06-10T08:30:24;7.90;;;4.00;;
19131;SDS011;9698;51.976;7.570;2023-06-10T08:32:52;5.40;;;4.10;;
19131;SDS011;9698;51.976;7.570;2023-06-10T08:35:21;5.80;;;3.70;;
19131;SDS011;9698;51.976;7.570;2023-06-10T08:37:49;6.23;;;4.03;;
19131;SDS011;9698;51.976;7.570;2023-06-10T08:40:17;6.07;;;3.97;;
19131;SDS011;9698;51.976;7.570;2023-06-10T08:42:48;6.00;;;3.73;;
19131;SDS011;9698;51.976;7.570;2023-06-10T08:45:19;4.90;;;3.70;;
19131;SDS011;9698;51.976;7.570;2023-06-10T08:47:50;6.43;;;3.77;;
19131;SDS011;9698;51.976;7.570;2023-06-10T08:50:19;7.97;;;4.50;;
19131;SDS011;9698;51.976;7.570;2023-06-10T08:52:50;5.93;;;4.10;;
19131;SDS011;9698;51.976;7.570;2023-06-10T08:55:23;5.63;;;4.43;;
19131;SDS011;9698;51.976;7.570;2023-06-10T08:57:59;4.03;;;3.73;;
19131;SDS011;9698;51.976;7.570;2023-06-10T09:00:28;5.53;;;4.03;;
19131;SDS011;9698;51.976;7.570;2023-06-10T09:02:57;6.90;;;4.00;;
19131;SDS011;9698;51.976;7.570;2023-06-10T09:05:30;4.90;;;3.90;;
19131;SDS011;9698;51.976;7.570;2023-06-10T09:08:20;6.60;;;4.10;;
19131;SDS011;9698;51.976;7.570;2023-06-10T09:10:49;5.73;;;4.60;;
19131;SDS011;9698;51.976;7.570;2023-06-10T09:13:17;4.80;;;3.80;;
19131;SDS011;9698;51.976;7.570;2023-06-10T09:15:45;5.70;;;4.07;;
19131;SDS011;9698;51.976;7.570;2023-06-10T09:18:15;4.63;;;4.07;;
19131;SDS011;9698;51.976;7.570;2023-06-10T09:20:43;7.60;;;4.17;;
19131;SDS011;9698;51.976;7.570;2023-06-10T09:23:11;5.40;;;4.53;;
19131;SDS011;9698;51.976;7.570;2023-06-10T09:25:40;4.77;;;4.27;;
19131;SDS011;9698;51.976;7.570;2023-06-10T09:28:13;5.17;;;3.90;;
19131;SDS011;9698;51.976;7.570;2023-06-10T09:30:41;5.80;;;4.40;;
19131;SDS011;9698;51.976;7.570;2023-06-10T09:33:10;7.53;;;4.37;;
19131;SDS011;9698;51.976;7.570;2023-06-10T09:35:45;5.63;;;4.50;;
19131;SDS011;9698;51.976;7.570;2023-06-10T09:38:13;5.50;;;4.20;;
19131;SDS011;9698;51.976;7.570;2023-06-10T09:40:49;6.10;;;4.40;;
19131;SDS011;9698;51.976;7.570;2023-06-10T09:43:18;5.17;;;4.50;;
19131;SDS011;9698;51.976;7.570;2023-06-10T09:46:07;6.67;;;5.03;;
19131;SDS011;9698;51.976;7.570;2023-06-10T09:48:42;6.97;;;4.50;;
19131;SDS011;9698;51.976;7.570;2023-06-10T09:51:10;4.83;;;4.20;;
19131;SDS011;9698;51.976;7.570;2023-06-10T09:53:39;6.63;;;4.63;;
19131;SDS011;9698;51.976;7.570;2023-06-10T09:56:07;6.10;;;4.80;;
19131;SDS011;9698;51.976;7.570;2023-06-10T09:58:37;6.17;;;4.23;;
19131;SDS011;9698;51.976;7.570;2023-06-10T10:01:09;6.60;;;4.70;;
19131;SDS011;9698;51.976;7.570;2023-06-10T10:03:44;7.23;;;4.73;;
19131;SDS011;9698;51.976;7.570;2023-06-10T10:06:13;5.27;;;4.43;;
19131;SDS011;9698;51.976;7.570;2023-06-10T10:08:41;7.37;;;4.50;;
19131;SDS011;9698;51.976;7.570;2023-06-10T10:11:10;5.03;;;4.53;;
19131;SDS011;9698;51.976;7.570;2023-06-10T10:13:38;5.33;;;4.47;;
19131;SDS011;9698;51.976;7.570;2023-06-10T10:16:09;5.13;;;4.63;;
19131;SDS011;9698;51.976;7.570;2023-06-10T10:18:41;6.87;;;4.67;;
19131;SDS011;9698;51.976;7.570;2023-06-10T10:21:13;6.43;;;4.77;;
19131;SDS011;9698;51.976;7.570;2023-06-10T10:23:51;5.83;;;4.53;;
19131;SDS011;9698;51.976;7.570;2023-06-10T10:26:26;5.80;;;4.20;;
19131;SDS011;9698;51.976;7.570;2023-06-10T10:28:57;5.17;;;4.00;;
19131;SDS011;9698;51.976;7.570;2023-06-10T10:31:31;5.63;;;4.20;;
19131;SDS011;9698;51.976;7.570;2023-06-10T10:34:02;4.83;;;4.30;;
19131;SDS011;9698;51.976;7.570;2023-06-10T10:36:33;6.37;;;4.47;;
19131;SDS011;9698;51.976;7.570;2023-06-10T10:39:03;5.03;;;4.40;;
19131;SDS011;9698;51.976;7.570;2023-06-10T10:41:31;5.57;;;3.80;;
19131;SDS011;9698;51.976;7.570;2023-06-10T10:44:01;6.00;;;4.50;;
19131;SDS011;9698;51.976;7.570;2023-06-10T10:46:34;6.83;;;4.20;;
19131;SDS011;9698;51.976;7.570;2023-06-10T10:49:10;6.37;;;4.03;;
19131;SDS011;9698;51.976;7.570;2023-06-10T10:51:54;8.03;;;4.67;;
19131;SDS011;9698;51.976;7.570;2023-06-10T10:54:28;6.80;;;4.63;;
19131;SDS011;9698;51.976;7.570;2023-06-10T10:57:13;7.53;;;4.70;;
19131;SDS011;9698;51.976;7.570;2023-06-10T10:59:52;5.17;;;4.50;;
19131;SDS011;9698;51.976;7.570;2023-06-10T11:02:33;5.23;;;4.50;;
19131;SDS011;9698;51.976;7.570;2023-06-10T11:05:09;6.17;;;4.60;;
19131;SDS011;9698;51.976;7.570;2023-06-10T11:07:38;6.20;;;4.27;;
19131;SDS011;9698;51.976;7.570;2023-06-10T11:10:07;6.37;;;4.60;;
19131;SDS011;9698;51.976;7.570;2023-06-10T11:12:42;6.00;;;4.70;;
19131;SDS011;9698;51.976;7.570;2023-06-10T11:15:18;6.53;;;4.50;;
19131;SDS011;9698;51.976;7.570;2023-06-10T11:20:46;8.77;;;4.63;;
19131;SDS011;9698;51.976;7.570;2023-06-10T11:23:38;5.73;;;4.70;;
19131;SDS011;9698;51.976;7.570;2023-06-10T11:26:15;8.20;;;4.53;;
19131;SDS011;9698;51.976;7.570;2023-06-10T11:29:01;6.47;;;4.80;;
19131;SDS011;9698;51.976;7.570;2023-06-10T11:31:32;5.00;;;4.53;;
19131;SDS011;9698;51.976;7.570;2023-06-10T11:34:04;5.40;;;4.53;;
19131;SDS011;9698;51.976;7.570;2023-06-10T11:36:34;5.40;;;4.50;;
19131;SDS011;9698;51.976;7.570;2023-06-10T11:39:06;6.07;;;4.73;;
19131;SDS011;9698;51.976;7.570;2023-06-10T11:41:35;5.80;;;4.50;;
19131;SDS011;9698;51.976;7.570;2023-06-10T11:44:07;7.53;;;4.77;;
19131;SDS011;9698;51.976;7.570;2023-06-10T11:46:36;4.83;;;4.40;;
19131;SDS011;9698;51.976;7.570;2023-06-10T11:49:05;6.27;;;4.87;;
19131;SDS011;9698;51.976;7.570;2023-06-10T11:51:33;5.07;;;4.60;;
19131;SDS011;9698;51.976;7.570;2023-06-10T11:54:03;6.83;;;4.83;;
19131;SDS011;9698;51.976;7.570;2023-06-10T11:56:31;5.43;;;4.87;;
19131;SDS011;9698;51.976;7.570;2023-06-10T11:59:00;5.87;;;4.40;;
19131;SDS011;9698;51.976;7.570;2023-06-10T12:01:31;6.17;;;4.67;;
19131;SDS011;9698;51.976;7.570;2023-06-10T12:04:01;5.27;;;4.67;;
19131;SDS011;9698;51.976;7.570;2023-06-10T12:06:40;6.20;;;4.80;;
19131;SDS011;9698;51.976;7.570;2023-06-10T12:09:17;7.13;;;5.10;;
19131;SDS011;9698;51.976;7.570;2023-06-10T12:11:52;4.87;;;4.47;;
19131;SDS011;9698;51.976;7.570;2023-06-10T12:17:21;6.90;;;4.77;;
19131;SDS011;9698;51.976;7.570;2023-06-10T12:19:50;6.70;;;5.27;;
19131;SDS011;9698;51.976;7.570;2023-06-10T12:22:18;5.83;;;4.93;;
19131;SDS011;9698;51.976;7.570;2023-06-10T12:24:57;5.43;;;4.60;;
19131;SDS011;9698;51.976;7.570;2023-06-10T12:27:26;5.47;;;4.80;;
19131;SDS011;9698;51.976;7.570;2023-06-10T12:29:56;6.67;;;4.60;;
19131;SDS011;9698;51.976;7.570;2023-06-10T12:32:35;5.57;;;4.87;;
19131;SDS011;9698;51.976;7.570;2023-06-10T12:35:06;5.73;;;4.43;;
19131;SDS011;9698;51.976;7.570;2023-06-10T12:37:35;7.53;;;5.13;;
19131;SDS011;9698;51.976;7.570;2023-06-10T12:40:09;6.33;;;5.00;;
19131;SDS011;9698;51.976;7.570;2023-06-10T12:42:38;6.90;;;4.80;;
19131;SDS011;9698;51.976;7.570;2023-06-10T12:45:07;5.40;;;4.30;;
19131;SDS011;9698;51.976;7.570;2023-06-10T12:47:37;8.60;;;4.77;;
19131;SDS011;9698;51.976;7.570;2023-06-10T12:50:07;5.80;;;4.80;;
19131;SDS011;9698;51.976;7.570;2023-06-10T12:52:38;7.93;;;4.93;;
19131;SDS011;9698;51.976;7.570;2023-06-10T12:55:07;6.50;;;4.60;;
19131;SDS011;9698;51.976;7.570;2023-06-10T12:57:35;6.37;;;5.03;;
19131;SDS011;9698;51.976;7.570;2023-06-10T13:00:04;6.97;;;5.20;;
19131;SDS011;9698;51.976;7.570;2023-06-10T13:02:40;6.33;;;5.23;;
19131;SDS011;9698;51.976;7.570;2023-06-10T13:05:08;5.73;;;4.97;;
19131;SDS011;9698;51.976;7.570;2023-06-10T13:07:39;5.27;;;4.60;;
19131;SDS011;9698;51.976;7.570;2023-06-10T13:10:09;7.67;;;5.53;;
19131;SDS011;9698;51.976;7.570;2023-06-10T13:12:37;6.83;;;5.13;;
19131;SDS011;9698;51.976;7.570;2023-06-10T13:15:15;5.73;;;5.13;;
19131;SDS011;9698;51.976;7.570;2023-06-10T13:17:44;5.80;;;5.20;;
19131;SDS011;9698;51.976;7.570;2023-06-10T13:20:15;7.73;;;5.10;;
19131;SDS011;9698;51.976;7.570;2023-06-10T13:22:43;6.00;;;4.60;;
19131;SDS011;9698;51.976;7.570;2023-06-10T13:25:11;8.07;;;4.97;;
19131;SDS011;9698;51.976;7.570;2023-06-10T13:27:40;5.70;;;5.10;;
19131;SDS011;9698;51.976;7.570;2023-06-10T13:30:09;7.07;;;5.30;;
19131;SDS011;9698;51.976;7.570;2023-06-10T13:32:38;5.20;;;4.67;;
19131;SDS011;9698;51.976;7.570;2023-06-10T13:35:07;7.50;;;5.43;;
19131;SDS011;9698;51.976;7.570;2023-06-10T13:37:36;6.00;;;5.40;;
19131;SDS011;9698;51.976;7.570;2023-06-10T13:40:06;6.90;;;5.40;;
19131;SDS011;9698;51.976;7.570;2023-06-10T13:42:36;7.07;;;4.83;;
19131;SDS011;9698;51.976;7.570;2023-06-10T13:45:05;8.90;;;5.03;;
19131;SDS011;9698;51.976;7.570;2023-06-10T13:47:36;8.53;;;5.37;;
19131;SDS011;9698;51.976;7.570;2023-06-10T13:50:05;5.67;;;5.17;;
19131;SDS011;9698;51.976;7.570;2023-06-10T13:52:34;5.33;;;4.83;;
19131;SDS011;9698;51.976;7.570;2023-06-10T13:55:03;5.90;;;4.87;;
19131;SDS011;9698;51.976;7.570;2023-06-10T13:57:32;6.00;;;5.40;;
19131;SDS011;9698;51.976;7.570;2023-06-10T14:00:00;7.23;;;5.60;;
19131;SDS011;9698;51.976;7.570;2023-06-10T14:02:27;6.70;;;5.20;;
19131;SDS011;9698;51.976;7.570;2023-06-10T14:04:56;6.73;;;5.10;;
19131;SDS011;9698;51.976;7.570;2023-06-10T14:07:24;6.77;;;5.30;;
19131;SDS011;9698;51.976;7.570;2023-06-10T14:09:52;5.77;;;4.90;;
19131;SDS011;9698;51.976;7.570;2023-06-10T14:12:20;5.83;;;5.17;;
19131;SDS011;9698;51.976;7.570;2023-06-10T14:14:48;6.53;;;5.27;;
19131;SDS011;9698;51.976;7.570;2023-06-10T14:17:16;7.13;;;5.53;;
19131;SDS011;9698;51.976;7.570;2023-06-10T14:19:44;5.70;;;5.20;;
19131;SDS011;9698;51.976;7.570;2023-06-10T14:22:12;7.03;;;5.73;;
19131;SDS011;9698;51.976;7.570;2023-06-10T14:24:40;6.37;;;5.23;;
19131;SDS011;9698;51.976;7.570;2023-06-10T14:27:08;10.00;;;5.50;;
19131;SDS011;9698;51.976;7.570;2023-06-10T14:29:36;6.37;;;5.73;;
19131;SDS011;9698;51.976;7.570;2023-06-10T14:32:05;7.07;;;5.47;;
19131;SDS011;9698;51.976;7.570;2023-06-10T14:34:35;6.67;;;5.87;;
19131;SDS011;9698;51.976;7.570;2023-06-10T14:37:05;8.10;;;5.57;;
19131;SDS011;9698;51.976;7.570;2023-06-10T14:39:34;6.60;;;5.57;;
19131;SDS011;9698;51.976;7.570;2023-06-10T14:42:05;6.07;;;5.33;;
19131;SDS011;9698;51.976;7.570;2023-06-10T14:44:34;7.23;;;5.37;;
19131;SDS011;9698;51.976;7.570;2023-06-10T14:47:02;7.30;;;5.87;;
19131;SDS011;9698;51.976;7.570;2023-06-10T14:49:31;6.27;;;5.20;;
19131;SDS011;9698;51.976;7.570;2023-06-10T14:51:59;7.23;;;5.90;;
19131;SDS011;9698;51.976;7.570;2023-06-10T14:54:27;6.23;;;5.37;;
19131;SDS011;9698;51.976;7.570;2023-06-10T14:56:55;6.03;;;5.27;;
19131;SDS011;9698;51.976;7.570;2023-06-10T14:59:23;6.67;;;5.87;;
19131;SDS011;9698;51.976;7.570;2023-06-10T15:01:51;6.50;;;5.63;;
19131;SDS011;9698;51.976;7.570;2023-06-10T15:04:20;5.90;;;5.30;;
19131;SDS011;9698;51.976;7.570;2023-06-10T15:06:50;8.37;;;5.50;;
19131;SDS011;9698;51.976;7.570;2023-06-10T15:09:18;8.27;;;5.37;;
19131;SDS011;9698;51.976;7.570;2023-06-10T15:11:47;7.70;;;5.60;;
19131;SDS011;9698;51.976;7.570;2023-06-10T15:14:15;5.77;;;5.27;;
19131;SDS011;9698;51.976;7.570;2023-06-10T15:16:42;5.80;;;5.30;;
19131;SDS011;9698;51.976;7.570;2023-06-10T15:19:10;8.37;;;5.10;;